sensor_id;sensor_type;location;lat;lon;timestamp;P1;durP1;ratioP1;P2;durP2;ratioP2
50126;SDS011;36024;47.974;16.398;2023-07-13T00:00:10;2.10;;;1.90;;
50126;SDS011;36024;47.974;16.398;2023-07-13T00:02:40;4.30;;;2.10;;
50126;SDS011;36024;47.974;16.398;2023-07-13T00:05:07;4.83;;;1.80;;
50126;SDS011;36024;47.974;16.398;2023-07-13T00:07:34;2.80;;;2.03;;
50126;SDS011;36024;47.974;16.398;2023-07-13T00:10:02;3.93;;;1.90;;
50126;SDS011;36024;47.974;16.398;2023-07-13T00:12:31;3.43;;;2.13;;
50126;SDS011;36024;47.974;16.398;2023-07-13T00:15:00;2.77;;;1.90;;
50126;SDS011;36024;47.974;16.398;2023-07-13T00:17:30;2.20;;;1.83;;
50126;SDS011;36024;47.974;16.398;2023-07-13T00:19:57;3.33;;;2.10;;
50126;SDS011;36024;47.974;16.398;2023-07-13T00:22:33;3.23;;;1.93;;
50126;SDS011;36024;47.974;16.398;2023-07-13T00:25:00;2.80;;;1.90;;
50126;SDS011;36024;47.974;16.398;2023-07-13T00:27:27;2.33;;;2.00;;
50126;SDS011;36024;47.974;16.398;2023-07-13T00:29:56;2.73;;;2.13;;
50126;SDS011;36024;47.974;16.398;2023-07-13T00:32:23;2.27;;;2.07;;
50126;SDS011;36024;47.974;16.398;2023-07-13T00:34:53;2.00;;;1.90;;
50126;SDS011;36024;47.974;16.398;2023-07-13T00:37:20;2.57;;;1.90;;
50126;SDS011;36024;47.974;16.398;2023-07-13T00:39:47;2.70;;;2.23;;
50126;SDS011;36024;47.974;16.398;2023-07-13T00:42:13;2.83;;;2.00;;
50126;SDS011;36024;47.974;16.398;2023-07-13T00:44:40;2.57;;;2.10;;
50126;SDS011;36024;47.974;16.398;2023-07-13T00:47:06;2.20;;;2.00;;
50126;SDS011;36024;47.974;16.398;2023-07-13T00:49:34;2.27;;;2.10;;
50126;SDS011;36024;47.974;16.398;2023-07-13T00:52:04;2.13;;;1.93;;
50126;SDS011;36024;47.974;16.398;2023-07-13T00:54:34;1.97;;;1.83;;
50126;SDS011;36024;47.974;16.398;2023-07-13T00:57:05;2.57;;;1.97;;
50126;SDS011;36024;47.974;16.398;2023-07-13T00:59:34;2.60;;;2.30;;
50126;SDS011;36024;47.974;16.398;2023-07-13T01:02:01;2.77;;;2.03;;
50126;SDS011;36024;47.974;16.398;2023-07-13T01:04:29;1.90;;;1.80;;
50126;SDS011;36024;47.974;16.398;2023-07-13T01:06:56;2.60;;;1.90;;
50126;SDS011;36024;47.974;16.398;2023-07-13T01:09:23;1.97;;;1.77;;
50126;SDS011;36024;47.974;16.398;2023-07-13T01:11:50;2.67;;;1.90;;
50126;SDS011;36024;47.974;16.398;2023-07-13T01:14:16;1.70;;;1.60;;
50126;SDS011;36024;47.974;16.398;2023-07-13T01:16:44;2.30;;;1.83;;
50126;SDS011;36024;47.974;16.398;2023-07-13T01:22:04;2.33;;;1.80;;
50126;SDS011;36024;47.974;16.398;2023-07-13T01:24:35;2.10;;;1.80;;
50126;SDS011;36024;47.974;16.398;2023-07-13T01:27:02;2.83;;;1.70;;
50126;SDS011;36024;47.974;16.398;2023-07-13T01:29:30;1.93;;;1.70;;
50126;SDS011;36024;47.974;16.398;2023-07-13T01:31:58;2.03;;;1.83;;
50126;SDS011;36024;47.974;16.398;2023-07-13T01:34:27;2.23;;;1.70;;
50126;SDS011;36024;47.974;16.398;2023-07-13T01:36:53;3.63;;;1.80;;
50126;SDS011;36024;47.974;16.398;2023-07-13T01:39:21;2.23;;;1.70;;
50126;SDS011;36024;47.974;16.398;2023-07-13T01:41:48;3.30;;;1.90;;
50126;SDS011;36024;47.974;16.398;2023-07-13T01:44:15;2.47;;;1.73;;
50126;SDS011;36024;47.974;16.398;2023-07-13T01:46:42;1.87;;;1.77;;
50126;SDS011;36024;47.974;16.398;2023-07-13T01:49:10;1.90;;;1.80;;
50126;SDS011;36024;47.974;16.398;2023-07-13T01:51:36;2.40;;;2.20;;
50126;SDS011;36024;47.974;16.398;2023-07-13T01:54:03;2.43;;;2.10;;
50126;SDS011;36024;47.974;16.398;2023-07-13T01:56:30;3.93;;;2.67;;
50126;SDS011;36024;47.974;16.398;2023-07-13T01:58:56;2.90;;;2.33;;
50126;SDS011;36024;47.974;16.398;2023-07-13T02:01:23;2.47;;;2.30;;
50126;SDS011;36024;47.974;16.398;2023-07-13T02:03:50;4.10;;;2.40;;
50126;SDS011;36024;47.974;16.398;2023-07-13T02:06:19;2.33;;;2.13;;
50126;SDS011;36024;47.974;16.398;2023-07-13T02:08:47;2.40;;;2.20;;
50126;SDS011;36024;47.974;16.398;2023-07-13T02:11:13;4.13;;;2.30;;
50126;SDS011;36024;47.974;16.398;2023-07-13T02:13:40;3.87;;;2.50;;
50126;SDS011;36024;47.974;16.398;2023-07-13T02:16:07;3.57;;;2.47;;
50126;SDS011;36024;47.974;16.398;2023-07-13T02:18:34;2.97;;;2.17;;
50126;SDS011;36024;47.974;16.398;2023-07-13T02:21:01;2.37;;;2.17;;
50126;SDS011;36024;47.974;16.398;2023-07-13T02:23:29;2.27;;;1.97;;
50126;SDS011;36024;47.974;16.398;2023-07-13T02:25:56;1.90;;;1.80;;
50126;SDS011;36024;47.974;16.398;2023-07-13T02:28:24;2.30;;;2.10;;
50126;SDS011;36024;47.974;16.398;2023-07-13T02:30:50;2.73;;;2.40;;
50126;SDS011;36024;47.974;16.398;2023-07-13T02:33:17;4.27;;;2.20;;
50126;SDS011;36024;47.974;16.398;2023-07-13T02:35:44;2.60;;;1.90;;
50126;SDS011;36024;47.974;16.398;2023-07-13T02:38:10;2.40;;;1.97;;
50126;SDS011;36024;47.974;16.398;2023-07-13T02:40:37;2.03;;;1.90;;
50126;SDS011;36024;47.974;16.398;2023-07-13T02:43:04;2.20;;;1.80;;
50126;SDS011;36024;47.974;16.398;2023-07-13T02:45:31;2.20;;;1.63;;
50126;SDS011;36024;47.974;16.398;2023-07-13T02:47:58;2.47;;;1.90;;
50126;SDS011;36024;47.974;16.398;2023-07-13T02:50:25;2.77;;;1.70;;
50126;SDS011;36024;47.974;16.398;2023-07-13T02:52:52;3.17;;;1.70;;
50126;SDS011;36024;47.974;16.398;2023-07-13T02:55:18;3.07;;;1.53;;
50126;SDS011;36024;47.974;16.398;2023-07-13T02:57:45;1.93;;;1.80;;
50126;SDS011;36024;47.974;16.398;2023-07-13T03:00:12;2.33;;;1.53;;
50126;SDS011;36024;47.974;16.398;2023-07-13T03:02:39;1.70;;;1.60;;
50126;SDS011;36024;47.974;16.398;2023-07-13T03:05:06;2.13;;;1.70;;
50126;SDS011;36024;47.974;16.398;2023-07-13T03:07:34;2.07;;;1.60;;
50126;SDS011;36024;47.974;16.398;2023-07-13T03:10:00;2.17;;;1.50;;
50126;SDS011;36024;47.974;16.398;2023-07-13T03:12:37;2.07;;;1.47;;
50126;SDS011;36024;47.974;16.398;2023-07-13T03:15:10;2.10;;;1.90;;
50126;SDS011;36024;47.974;16.398;2023-07-13T03:17:39;1.97;;;1.67;;
50126;SDS011;36024;47.974;16.398;2023-07-13T03:20:07;7.37;;;1.93;;
50126;SDS011;36024;47.974;16.398;2023-07-13T03:22:34;2.20;;;1.77;;
50126;SDS011;36024;47.974;16.398;2023-07-13T03:25:01;2.10;;;1.90;;
50126;SDS011;36024;47.974;16.398;2023-07-13T03:27:27;1.70;;;1.60;;
50126;SDS011;36024;47.974;16.398;2023-07-13T03:29:54;2.87;;;1.40;;
50126;SDS011;36024;47.974;16.398;2023-07-13T03:32:21;2.83;;;2.03;;
50126;SDS011;36024;47.974;16.398;2023-07-13T03:34:48;2.93;;;1.77;;
50126;SDS011;36024;47.974;16.398;2023-07-13T03:37:16;3.60;;;1.80;;
50126;SDS011;36024;47.974;16.398;2023-07-13T03:39:43;2.27;;;1.60;;
50126;SDS011;36024;47.974;16.398;2023-07-13T03:42:10;3.53;;;1.87;;
50126;SDS011;36024;47.974;16.398;2023-07-13T03:44:38;2.40;;;1.80;;
50126;SDS011;36024;47.974;16.398;2023-07-13T03:47:06;3.07;;;2.00;;
50126;SDS011;36024;47.974;16.398;2023-07-13T03:49:35;2.27;;;2.07;;
50126;SDS011;36024;47.974;16.398;2023-07-13T03:52:01;2.17;;;1.97;;
50126;SDS011;36024;47.974;16.398;2023-07-13T03:54:28;2.57;;;1.90;;
50126;SDS011;36024;47.974;16.398;2023-07-13T03:56:55;4.67;;;2.20;;
50126;SDS011;36024;47.974;16.398;2023-07-13T03:59:21;3.47;;;2.03;;
50126;SDS011;36024;47.974;16.398;2023-07-13T04:01:48;4.30;;;2.40;;
50126;SDS011;36024;47.974;16.398;2023-07-13T04:04:15;3.30;;;2.17;;
50126;SDS011;36024;47.974;16.398;2023-07-13T04:06:42;3.47;;;2.23;;
50126;SDS011;36024;47.974;16.398;2023-07-13T04:09:10;2.43;;;2.23;;
50126;SDS011;36024;47.974;16.398;2023-07-13T04:11:37;3.70;;;2.30;;
50126;SDS011;36024;47.974;16.398;2023-07-13T04:14:05;2.13;;;1.90;;
50126;SDS011;36024;47.974;16.398;2023-07-13T04:16:33;3.43;;;2.43;;
50126;SDS011;36024;47.974;16.398;2023-07-13T04:18:59;4.93;;;2.50;;
50126;SDS011;36024;47.974;16.398;2023-07-13T04:21:28;5.00;;;2.43;;
50126;SDS011;36024;47.974;16.398;2023-07-13T04:23:56;3.33;;;2.10;;
50126;SDS011;36024;47.974;16.398;2023-07-13T04:26:22;3.23;;;2.40;;
50126;SDS011;36024;47.974;16.398;2023-07-13T04:28:50;6.43;;;2.60;;
50126;SDS011;36024;47.974;16.398;2023-07-13T04:31:18;5.00;;;2.70;;
50126;SDS011;36024;47.974;16.398;2023-07-13T04:33:44;4.63;;;2.70;;
50126;SDS011;36024;47.974;16.398;2023-07-13T04:36:14;5.43;;;2.73;;
50126;SDS011;36024;47.974;16.398;2023-07-13T04:38:42;3.50;;;2.83;;
50126;SDS011;36024;47.974;16.398;2023-07-13T04:41:08;4.53;;;2.60;;
50126;SDS011;36024;47.974;16.398;2023-07-13T04:43:35;3.50;;;2.73;;
50126;SDS011;36024;47.974;16.398;2023-07-13T04:46:06;4.47;;;3.17;;
50126;SDS011;36024;47.974;16.398;2023-07-13T04:48:34;4.93;;;2.80;;
50126;SDS011;36024;47.974;16.398;2023-07-13T04:51:01;3.57;;;2.80;;
50126;SDS011;36024;47.974;16.398;2023-07-13T04:53:28;5.13;;;2.73;;
50126;SDS011;36024;47.974;16.398;2023-07-13T04:55:56;3.43;;;3.10;;
50126;SDS011;36024;47.974;16.398;2023-07-13T04:58:23;3.93;;;2.90;;
50126;SDS011;36024;47.974;16.398;2023-07-13T05:00:50;4.80;;;3.10;;
50126;SDS011;36024;47.974;16.398;2023-07-13T05:03:17;4.23;;;2.83;;
50126;SDS011;36024;47.974;16.398;2023-07-13T05:05:54;4.37;;;2.70;;
50126;SDS011;36024;47.974;16.398;2023-07-13T05:08:24;3.10;;;2.60;;
50126;SDS011;36024;47.974;16.398;2023-07-13T05:10:51;3.67;;;2.50;;
50126;SDS011;36024;47.974;16.398;2023-07-13T05:13:18;3.20;;;2.33;;
50126;SDS011;36024;47.974;16.398;2023-07-13T05:15:45;2.93;;;2.47;;
50126;SDS011;36024;47.974;16.398;2023-07-13T05:18:13;4.93;;;2.43;;
50126;SDS011;36024;47.974;16.398;2023-07-13T05:20:40;5.67;;;2.37;;
50126;SDS011;36024;47.974;16.398;2023-07-13T05:23:06;3.93;;;2.30;;
50126;SDS011;36024;47.974;16.398;2023-07-13T05:25:33;2.80;;;1.90;;
50126;SDS011;36024;47.974;16.398;2023-07-13T05:27:59;3.33;;;2.17;;
50126;SDS011;36024;47.974;16.398;2023-07-13T05:30:26;3.47;;;2.00;;
50126;SDS011;36024;47.974;16.398;2023-07-13T05:32:53;3.75;;;2.05;;
50126;SDS011;36024;47.974;16.398;2023-07-13T05:35:19;2.72;;;2.20;;
50126;SDS011;36024;47.974;16.398;2023-07-13T05:37:46;2.97;;;1.95;;
50126;SDS011;36024;47.974;16.398;2023-07-13T05:40:13;3.20;;;1.88;;
50126;SDS011;36024;47.974;16.398;2023-07-13T05:42:39;4.50;;;1.80;;
50126;SDS011;36024;47.974;16.398;2023-07-13T05:45:06;3.15;;;2.00;;
50126;SDS011;36024;47.974;16.398;2023-07-13T05:47:33;2.35;;;1.80;;
50126;SDS011;36024;47.974;16.398;2023-07-13T05:49:59;3.42;;;1.98;;
50126;SDS011;36024;47.974;16.398;2023-07-13T05:52:28;3.28;;;1.77;;
50126;SDS011;36024;47.974;16.398;2023-07-13T05:54:55;2.83;;;2.17;;
50126;SDS011;36024;47.974;16.398;2023-07-13T05:57:22;3.25;;;2.15;;
50126;SDS011;36024;47.974;16.398;2023-07-13T05:59:48;3.95;;;2.00;;
50126;SDS011;36024;47.974;16.398;2023-07-13T06:02:15;3.17;;;2.40;;
50126;SDS011;36024;47.974;16.398;2023-07-13T06:04:42;2.88;;;2.13;;
50126;SDS011;36024;47.974;16.398;2023-07-13T06:07:09;2.78;;;2.22;;
50126;SDS011;36024;47.974;16.398;2023-07-13T06:09:36;4.30;;;2.50;;
50126;SDS011;36024;47.974;16.398;2023-07-13T06:12:04;2.85;;;2.20;;
50126;SDS011;36024;47.974;16.398;2023-07-13T06:14:31;4.15;;;2.55;;
50126;SDS011;36024;47.974;16.398;2023-07-13T06:16:58;3.67;;;2.05;;
50126;SDS011;36024;47.974;16.398;2023-07-13T06:19:24;4.22;;;2.28;;
50126;SDS011;36024;47.974;16.398;2023-07-13T06:21:51;2.40;;;2.20;;
50126;SDS011;36024;47.974;16.398;2023-07-13T06:24:17;3.47;;;2.08;;
50126;SDS011;36024;47.974;16.398;2023-07-13T06:26:44;3.08;;;1.58;;
50126;SDS011;36024;47.974;16.398;2023-07-13T06:29:11;2.75;;;1.85;;
50126;SDS011;36024;47.974;16.398;2023-07-13T06:31:37;3.20;;;1.50;;
50126;SDS011;36024;47.974;16.398;2023-07-13T06:34:04;1.90;;;1.40;;
50126;SDS011;36024;47.974;16.398;2023-07-13T06:36:31;2.53;;;1.48;;
50126;SDS011;36024;47.974;16.398;2023-07-13T06:38:58;1.77;;;1.40;;
50126;SDS011;36024;47.974;16.398;2023-07-13T06:41:24;1.80;;;1.48;;
50126;SDS011;36024;47.974;16.398;2023-07-13T06:43:54;3.58;;;1.80;;
50126;SDS011;36024;47.974;16.398;2023-07-13T06:46:21;2.22;;;1.45;;
50126;SDS011;36024;47.974;16.398;2023-07-13T06:48:49;2.13;;;1.50;;
50126;SDS011;36024;47.974;16.398;2023-07-13T06:51:16;1.63;;;1.52;;
50126;SDS011;36024;47.974;16.398;2023-07-13T06:53:43;1.63;;;1.50;;
50126;SDS011;36024;47.974;16.398;2023-07-13T06:56:10;1.58;;;1.40;;
50126;SDS011;36024;47.974;16.398;2023-07-13T06:58:37;2.53;;;1.73;;
50126;SDS011;36024;47.974;16.398;2023-07-13T07:01:04;2.33;;;1.65;;
50126;SDS011;36024;47.974;16.398;2023-07-13T07:03:33;1.73;;;1.60;;
50126;SDS011;36024;47.974;16.398;2023-07-13T07:06:14;2.20;;;1.80;;
50126;SDS011;36024;47.974;16.398;2023-07-13T07:08:43;1.85;;;1.75;;
50126;SDS011;36024;47.974;16.398;2023-07-13T07:11:12;2.10;;;1.90;;
50126;SDS011;36024;47.974;16.398;2023-07-13T07:13:40;1.75;;;1.60;;
50126;SDS011;36024;47.974;16.398;2023-07-13T07:16:06;1.95;;;1.67;;
50126;SDS011;36024;47.974;16.398;2023-07-13T07:18:34;2.10;;;1.67;;
50126;SDS011;36024;47.974;16.398;2023-07-13T07:21:01;1.33;;;1.23;;
50126;SDS011;36024;47.974;16.398;2023-07-13T07:23:27;1.60;;;1.50;;
50126;SDS011;36024;47.974;16.398;2023-07-13T07:25:54;1.95;;;1.20;;
50126;SDS011;36024;47.974;16.398;2023-07-13T07:28:21;2.35;;;1.20;;
50126;SDS011;36024;47.974;16.398;2023-07-13T07:30:52;1.38;;;1.25;;
50126;SDS011;36024;47.974;16.398;2023-07-13T07:33:39;1.60;;;1.50;;
50126;SDS011;36024;47.974;16.398;2023-07-13T07:36:06;1.65;;;1.42;;
50126;SDS011;36024;47.974;16.398;2023-07-13T07:38:36;1.40;;;1.30;;
50126;SDS011;36024;47.974;16.398;2023-07-13T07:41:06;1.45;;;1.20;;
50126;SDS011;36024;47.974;16.398;2023-07-13T07:43:35;1.35;;;1.23;;
50126;SDS011;36024;47.974;16.398;2023-07-13T07:46:03;1.55;;;1.17;;
50126;SDS011;36024;47.974;16.398;2023-07-13T07:48:30;1.55;;;1.05;;
50126;SDS011;36024;47.974;16.398;2023-07-13T07:50:57;1.17;;;1.08;;
50126;SDS011;36024;47.974;16.398;2023-07-13T07:53:24;0.90;;;0.80;;
50126;SDS011;36024;47.974;16.398;2023-07-13T07:55:50;1.27;;;0.80;;
50126;SDS011;36024;47.974;16.398;2023-07-13T07:58:20;1.10;;;0.90;;
50126;SDS011;36024;47.974;16.398;2023-07-13T08:00:50;0.70;;;0.70;;
50126;SDS011;36024;47.974;16.398;2023-07-13T08:03:19;0.98;;;0.95;;
50126;SDS011;36024;47.974;16.398;2023-07-13T08:05:52;0.88;;;0.70;;
50126;SDS011;36024;47.974;16.398;2023-07-13T08:08:39;1.38;;;0.80;;
50126;SDS011;36024;47.974;16.398;2023-07-13T08:11:06;2.65;;;1.00;;
50126;SDS011;36024;47.974;16.398;2023-07-13T08:13:37;2.33;;;1.17;;
50126;SDS011;36024;47.974;16.398;2023-07-13T08:16:04;3.00;;;0.80;;
50126;SDS011;36024;47.974;16.398;2023-07-13T08:18:31;0.85;;;0.80;;
50126;SDS011;36024;47.974;16.398;2023-07-13T08:20:58;1.00;;;0.75;;
50126;SDS011;36024;47.974;16.398;2023-07-13T08:23:25;1.08;;;0.90;;
50126;SDS011;36024;47.974;16.398;2023-07-13T08:25:52;0.80;;;0.80;;
50126;SDS011;36024;47.974;16.398;2023-07-13T08:28:20;1.05;;;0.80;;
50126;SDS011;36024;47.974;16.398;2023-07-13T08:30:47;1.33;;;0.85;;
50126;SDS011;36024;47.974;16.398;2023-07-13T08:33:15;1.75;;;1.00;;
50126;SDS011;36024;47.974;16.398;2023-07-13T08:35:45;1.00;;;0.73;;
50126;SDS011;36024;47.974;16.398;2023-07-13T08:38:15;2.10;;;0.77;;
50126;SDS011;36024;47.974;16.398;2023-07-13T08:40:43;0.98;;;0.98;;
50126;SDS011;36024;47.974;16.398;2023-07-13T08:43:16;1.45;;;0.88;;
50126;SDS011;36024;47.974;16.398;2023-07-13T08:45:47;1.17;;;1.00;;
50126;SDS011;36024;47.974;16.398;2023-07-13T08:48:22;1.23;;;0.80;;
50126;SDS011;36024;47.974;16.398;2023-07-13T08:51:01;1.67;;;1.00;;
50126;SDS011;36024;47.974;16.398;2023-07-13T08:53:34;0.93;;;0.90;;
50126;SDS011;36024;47.974;16.398;2023-07-13T08:56:03;1.00;;;0.88;;
50126;SDS011;36024;47.974;16.398;2023-07-13T08:58:30;0.77;;;0.77;;
50126;SDS011;36024;47.974;16.398;2023-07-13T09:01:15;1.13;;;0.90;;
50126;SDS011;36024;47.974;16.398;2023-07-13T09:03:57;1.50;;;1.00;;
50126;SDS011;36024;47.974;16.398;2023-07-13T09:06:34;1.02;;;0.90;;
50126;SDS011;36024;47.974;16.398;2023-07-13T09:12:11;1.55;;;1.00;;
50126;SDS011;36024;47.974;16.398;2023-07-13T09:14:42;2.05;;;1.00;;
50126;SDS011;36024;47.974;16.398;2023-07-13T09:17:17;1.10;;;1.00;;
50126;SDS011;36024;47.974;16.398;2023-07-13T09:19:46;1.95;;;1.13;;
50126;SDS011;36024;47.974;16.398;2023-07-13T09:22:18;1.70;;;1.15;;
50126;SDS011;36024;47.974;16.398;2023-07-13T09:27:22;1.17;;;1.00;;
50126;SDS011;36024;47.974;16.398;2023-07-13T09:29:52;1.42;;;1.05;;
50126;SDS011;36024;47.974;16.398;2023-07-13T09:32:22;1.13;;;1.00;;
50126;SDS011;36024;47.974;16.398;2023-07-13T09:34:54;2.83;;;1.00;;
50126;SDS011;36024;47.974;16.398;2023-07-13T09:37:21;1.42;;;1.30;;
50126;SDS011;36024;47.974;16.398;2023-07-13T09:39:51;1.30;;;1.20;;
50126;SDS011;36024;47.974;16.398;2023-07-13T09:42:19;1.33;;;1.23;;
50126;SDS011;36024;47.974;16.398;2023-07-13T09:47:23;1.80;;;1.48;;
50126;SDS011;36024;47.974;16.398;2023-07-13T09:49:57;2.20;;;1.65;;
50126;SDS011;36024;47.974;16.398;2023-07-13T09:52:39;2.15;;;1.48;;
50126;SDS011;36024;47.974;16.398;2023-07-13T09:57:50;2.38;;;1.40;;
50126;SDS011;36024;47.974;16.398;2023-07-13T10:00:23;1.50;;;1.40;;
50126;SDS011;36024;47.974;16.398;2023-07-13T10:03:05;1.70;;;1.50;;
50126;SDS011;36024;47.974;16.398;2023-07-13T10:05:42;2.05;;;1.42;;
50126;SDS011;36024;47.974;16.398;2023-07-13T10:08:18;2.75;;;1.60;;
50126;SDS011;36024;47.974;16.398;2023-07-13T10:10:52;1.70;;;1.60;;
50126;SDS011;36024;47.974;16.398;2023-07-13T10:13:42;1.85;;;1.70;;
50126;SDS011;36024;47.974;16.398;2023-07-13T10:16:09;2.05;;;1.95;;
50126;SDS011;36024;47.974;16.398;2023-07-13T10:18:41;2.15;;;2.05;;
50126;SDS011;36024;47.974;16.398;2023-07-13T10:21:12;2.67;;;2.47;;
50126;SDS011;36024;47.974;16.398;2023-07-13T10:24:06;2.38;;;2.20;;
50126;SDS011;36024;47.974;16.398;2023-07-13T10:26:39;2.78;;;2.30;;
50126;SDS011;36024;47.974;16.398;2023-07-13T10:29:18;2.60;;;2.22;;
50126;SDS011;36024;47.974;16.398;2023-07-13T10:31:46;2.60;;;2.40;;
50126;SDS011;36024;47.974;16.398;2023-07-13T10:34:13;2.70;;;2.50;;
50126;SDS011;36024;47.974;16.398;2023-07-13T10:36:42;2.60;;;2.40;;
50126;SDS011;36024;47.974;16.398;2023-07-13T10:39:23;3.42;;;2.28;;
50126;SDS011;36024;47.974;16.398;2023-07-13T10:41:54;3.20;;;2.85;;
50126;SDS011;36024;47.974;16.398;2023-07-13T10:44:29;2.60;;;2.40;;
50126;SDS011;36024;47.974;16.398;2023-07-13T10:47:01;2.70;;;2.45;;
50126;SDS011;36024;47.974;16.398;2023-07-13T10:49:30;2.53;;;2.33;;
50126;SDS011;36024;47.974;16.398;2023-07-13T10:51:57;2.72;;;2.33;;
50126;SDS011;36024;47.974;16.398;2023-07-13T10:54:30;2.00;;;1.90;;
50126;SDS011;36024;47.974;16.398;2023-07-13T10:57:10;2.50;;;2.30;;
50126;SDS011;36024;47.974;16.398;2023-07-13T10:59:46;2.60;;;2.40;;
50126;SDS011;36024;47.974;16.398;2023-07-13T11:02:35;3.45;;;2.10;;
50126;SDS011;36024;47.974;16.398;2023-07-13T11:05:37;3.53;;;2.28;;
50126;SDS011;36024;47.974;16.398;2023-07-13T11:10:50;3.03;;;2.08;;
50126;SDS011;36024;47.974;16.398;2023-07-13T11:19:08;2.20;;;2.05;;
50126;SDS011;36024;47.974;16.398;2023-07-13T11:24:53;2.47;;;1.90;;
50126;SDS011;36024;47.974;16.398;2023-07-13T11:27:37;1.80;;;1.70;;
50126;SDS011;36024;47.974;16.398;2023-07-13T11:38:39;2.30;;;2.10;;
50126;SDS011;36024;47.974;16.398;2023-07-13T11:41:14;1.90;;;1.80;;
50126;SDS011;36024;47.974;16.398;2023-07-13T11:43:43;1.80;;;1.70;;
50126;SDS011;36024;47.974;16.398;2023-07-13T11:46:14;2.90;;;1.92;;
50126;SDS011;36024;47.974;16.398;2023-07-13T11:48:51;2.28;;;2.03;;
50126;SDS011;36024;47.974;16.398;2023-07-13T11:51:22;3.20;;;2.10;;
50126;SDS011;36024;47.974;16.398;2023-07-13T11:53:53;1.80;;;1.70;;
50126;SDS011;36024;47.974;16.398;2023-07-13T11:56:23;2.10;;;1.80;;
50126;SDS011;36024;47.974;16.398;2023-07-13T11:58:52;2.40;;;1.88;;
50126;SDS011;36024;47.974;16.398;2023-07-13T12:01:27;2.20;;;2.00;;
50126;SDS011;36024;47.974;16.398;2023-07-13T12:04:00;2.45;;;1.80;;
50126;SDS011;36024;47.974;16.398;2023-07-13T12:06:31;1.92;;;1.80;;
50126;SDS011;36024;47.974;16.398;2023-07-13T12:09:00;2.95;;;1.80;;
50126;SDS011;36024;47.974;16.398;2023-07-13T12:11:30;1.75;;;1.65;;
50126;SDS011;36024;47.974;16.398;2023-07-13T12:13:57;2.35;;;2.15;;
50126;SDS011;36024;47.974;16.398;2023-07-13T12:16:29;2.28;;;2.00;;
50126;SDS011;36024;47.974;16.398;2023-07-13T12:19:00;2.08;;;1.88;;
50126;SDS011;36024;47.974;16.398;2023-07-13T12:21:32;2.25;;;2.05;;
50126;SDS011;36024;47.974;16.398;2023-07-13T12:24:00;3.30;;;2.05;;
50126;SDS011;36024;47.974;16.398;2023-07-13T12:26:30;1.95;;;1.85;;
50126;SDS011;36024;47.974;16.398;2023-07-13T12:28:59;2.40;;;2.10;;
50126;SDS011;36024;47.974;16.398;2023-07-13T12:34:09;2.13;;;2.00;;
50126;SDS011;36024;47.974;16.398;2023-07-13T12:36:48;2.53;;;2.30;;
50126;SDS011;36024;47.974;16.398;2023-07-13T12:39:22;3.35;;;2.03;;
50126;SDS011;36024;47.974;16.398;2023-07-13T12:42:13;2.40;;;2.20;;
50126;SDS011;36024;47.974;16.398;2023-07-13T12:44:43;2.40;;;2.20;;
50126;SDS011;36024;47.974;16.398;2023-07-13T12:47:12;2.17;;;1.98;;
50126;SDS011;36024;47.974;16.398;2023-07-13T12:49:47;2.65;;;2.20;;
50126;SDS011;36024;47.974;16.398;2023-07-13T12:52:21;2.17;;;1.98;;
50126;SDS011;36024;47.974;16.398;2023-07-13T12:54:57;2.42;;;1.85;;
50126;SDS011;36024;47.974;16.398;2023-07-13T12:57:32;2.67;;;2.00;;
50126;SDS011;36024;47.974;16.398;2023-07-13T13:00:09;1.90;;;1.80;;
50126;SDS011;36024;47.974;16.398;2023-07-13T13:02:52;4.93;;;2.45;;
50126;SDS011;36024;47.974;16.398;2023-07-13T13:05:42;1.88;;;1.77;;
50126;SDS011;36024;47.974;16.398;2023-07-13T13:08:12;2.17;;;1.98;;
50126;SDS011;36024;47.974;16.398;2023-07-13T13:10:41;1.98;;;1.65;;
50126;SDS011;36024;47.974;16.398;2023-07-13T13:13:08;2.20;;;2.00;;
50126;SDS011;36024;47.974;16.398;2023-07-13T13:15:35;1.80;;;1.70;;
50126;SDS011;36024;47.974;16.398;2023-07-13T13:18:04;2.25;;;1.80;;
50126;SDS011;36024;47.974;16.398;2023-07-13T13:20:38;2.78;;;1.70;;
50126;SDS011;36024;47.974;16.398;2023-07-13T13:23:07;2.30;;;1.90;;
50126;SDS011;36024;47.974;16.398;2023-07-13T13:25:38;1.95;;;1.52;;
50126;SDS011;36024;47.974;16.398;2023-07-13T13:28:05;2.00;;;1.60;;
50126;SDS011;36024;47.974;16.398;2023-07-13T13:30:40;1.85;;;1.70;;
50126;SDS011;36024;47.974;16.398;2023-07-13T13:33:09;3.38;;;3.17;;
50126;SDS011;36024;47.974;16.398;2023-07-13T13:35:38;1.77;;;1.67;;
50126;SDS011;36024;47.974;16.398;2023-07-13T13:38:12;1.55;;;1.45;;
50126;SDS011;36024;47.974;16.398;2023-07-13T13:40:43;2.03;;;1.80;;
50126;SDS011;36024;47.974;16.398;2023-07-13T13:43:14;1.83;;;1.70;;
50126;SDS011;36024;47.974;16.398;2023-07-13T13:45:43;1.50;;;1.40;;
50126;SDS011;36024;47.974;16.398;2023-07-13T13:48:54;2.33;;;1.63;;
50126;SDS011;36024;47.974;16.398;2023-07-13T13:51:06;1.90;;;1.63;;
50126;SDS011;36024;47.974;16.398;2023-07-13T13:53:39;2.22;;;1.65;;
50126;SDS011;36024;47.974;16.398;2023-07-13T13:56:06;1.80;;;1.70;;
50126;SDS011;36024;47.974;16.398;2023-07-13T13:58:33;1.60;;;1.50;;
50126;SDS011;36024;47.974;16.398;2023-07-13T14:01:00;2.55;;;1.92;;
50126;SDS011;36024;47.974;16.398;2023-07-13T14:03:27;1.70;;;1.60;;
50126;SDS011;36024;47.974;16.398;2023-07-13T14:05:54;2.00;;;1.80;;
50126;SDS011;36024;47.974;16.398;2023-07-13T14:08:21;1.98;;;1.80;;
50126;SDS011;36024;47.974;16.398;2023-07-13T14:10:48;2.10;;;1.90;;
50126;SDS011;36024;47.974;16.398;2023-07-13T14:13:19;4.32;;;2.65;;
50126;SDS011;36024;47.974;16.398;2023-07-13T14:15:47;3.08;;;2.00;;
50126;SDS011;36024;47.974;16.398;2023-07-13T14:18:14;2.28;;;2.00;;
50126;SDS011;36024;47.974;16.398;2023-07-13T14:20:45;3.13;;;1.85;;
50126;SDS011;36024;47.974;16.398;2023-07-13T14:23:12;2.40;;;1.90;;
50126;SDS011;36024;47.974;16.398;2023-07-13T14:25:44;4.03;;;1.90;;
50126;SDS011;36024;47.974;16.398;2023-07-13T14:28:22;2.65;;;2.45;;
50126;SDS011;36024;47.974;16.398;2023-07-13T14:30:51;2.22;;;2.03;;
50126;SDS011;36024;47.974;16.398;2023-07-13T14:33:18;2.95;;;2.10;;
50126;SDS011;36024;47.974;16.398;2023-07-13T14:35:45;3.22;;;2.00;;
50126;SDS011;36024;47.974;16.398;2023-07-13T14:38:15;3.05;;;2.20;;
50126;SDS011;36024;47.974;16.398;2023-07-13T14:40:44;1.75;;;1.65;;
50126;SDS011;36024;47.974;16.398;2023-07-13T14:43:11;2.20;;;1.90;;
50126;SDS011;36024;47.974;16.398;2023-07-13T14:45:43;2.28;;;1.90;;
50126;SDS011;36024;47.974;16.398;2023-07-13T14:51:04;3.50;;;1.88;;
50126;SDS011;36024;47.974;16.398;2023-07-13T14:53:30;2.08;;;1.98;;
50126;SDS011;36024;47.974;16.398;2023-07-13T14:55:57;2.38;;;2.13;;
50126;SDS011;36024;47.974;16.398;2023-07-13T14:58:24;2.40;;;2.20;;
50126;SDS011;36024;47.974;16.398;2023-07-13T15:00:51;3.05;;;1.92;;
50126;SDS011;36024;47.974;16.398;2023-07-13T15:03:23;2.45;;;2.10;;
50126;SDS011;36024;47.974;16.398;2023-07-13T15:05:50;2.47;;;2.00;;
50126;SDS011;36024;47.974;16.398;2023-07-13T15:08:17;3.53;;;2.30;;
50126;SDS011;36024;47.974;16.398;2023-07-13T15:10:43;2.75;;;2.00;;
50126;SDS011;36024;47.974;16.398;2023-07-13T15:15:40;2.30;;;2.10;;
50126;SDS011;36024;47.974;16.398;2023-07-13T15:18:11;1.92;;;1.77;;
50126;SDS011;36024;47.974;16.398;2023-07-13T15:20:38;2.40;;;1.80;;
50126;SDS011;36024;47.974;16.398;2023-07-13T15:23:05;2.03;;;1.73;;
50126;SDS011;36024;47.974;16.398;2023-07-13T15:25:33;2.35;;;1.88;;
50126;SDS011;36024;47.974;16.398;2023-07-13T15:28:00;1.90;;;1.70;;